createdAt,value
2022-10-21T00:01:51.126Z,5.80
2022-10-21T00:04:19.888Z,6.23
2022-10-21T00:06:50.526Z,6.30
2022-10-21T00:09:19.470Z,6.03
2022-10-21T00:11:47.870Z,6.73
2022-10-21T00:14:16.296Z,6.67
2022-10-21T00:16:44.748Z,6.60
2022-10-21T00:19:13.152Z,6.17
2022-10-21T00:21:42.354Z,5.90
2022-10-21T00:24:12.169Z,6.50
2022-10-21T00:26:41.136Z,6.77
2022-10-21T00:29:10.207Z,6.23
2022-10-21T00:31:39.141Z,5.87
2022-10-21T00:34:07.612Z,6.00
2022-10-21T00:36:36.500Z,5.40
2022-10-21T00:39:05.187Z,6.00
2022-10-21T00:41:35.089Z,5.90
2022-10-21T00:44:08.077Z,6.60
2022-10-21T00:46:41.913Z,6.33
2022-10-21T00:49:19.093Z,6.37
2022-10-21T00:51:54.641Z,6.40
2022-10-21T00:54:26.574Z,6.30
2022-10-21T00:56:59.596Z,6.40
2022-10-21T00:59:36.039Z,6.80
2022-10-21T01:02:05.095Z,6.57
2022-10-21T01:04:33.692Z,6.40
2022-10-21T01:07:03.636Z,6.97
2022-10-21T01:09:32.596Z,6.50
2022-10-21T01:12:05.129Z,6.60
2022-10-21T01:14:55.675Z,6.77
2022-10-21T01:17:45.785Z,5.90
2022-10-21T01:20:48.640Z,6.23
2022-10-21T01:24:22.314Z,6.50
2022-10-21T01:27:24.806Z,5.87
2022-10-21T01:30:38.020Z,5.77
2022-10-21T01:33:39.221Z,5.53
2022-10-21T01:36:25.978Z,5.87
2022-10-21T01:39:13.305Z,6.77
2022-10-21T01:41:49.435Z,6.20
2022-10-21T01:44:26.881Z,6.60
2022-10-21T01:47:01.626Z,5.67
2022-10-21T01:49:36.637Z,5.80
2022-10-21T01:52:06.376Z,6.33
2022-10-21T01:54:41.413Z,5.80
2022-10-21T01:57:16.726Z,6.77
2022-10-21T01:59:48.123Z,6.80
2022-10-21T02:02:21.271Z,6.67
2022-10-21T02:04:52.757Z,5.73
2022-10-21T02:07:21.732Z,6.27
2022-10-21T02:09:52.875Z,6.27
2022-10-21T02:12:25.450Z,5.97
2022-10-21T02:14:58.242Z,5.97
2022-10-21T02:17:30.343Z,6.67
2022-10-21T02:20:03.593Z,6.13
2022-10-21T02:22:33.640Z,5.70
2022-10-21T02:25:09.377Z,6.30
2022-10-21T02:27:37.939Z,6.27
2022-10-21T02:30:08.247Z,6.03
2022-10-21T02:32:48.246Z,6.50
2022-10-21T02:35:32.810Z,6.07
2022-10-21T02:38:11.459Z,5.80
2022-10-21T02:40:46.958Z,6.17
2022-10-21T02:43:22.294Z,7.07
2022-10-21T02:45:51.769Z,6.40
2022-10-21T02:48:21.766Z,5.83
2022-10-21T02:50:50.515Z,6.43
2022-10-21T02:53:19.446Z,6.23
2022-10-21T02:55:48.146Z,5.63
2022-10-21T02:58:16.544Z,6.10
2022-10-21T03:00:45.495Z,6.10
2022-10-21T03:03:14.515Z,6.23
2022-10-21T03:05:44.679Z,6.13
2022-10-21T03:08:13.156Z,6.57
2022-10-21T03:10:41.970Z,5.90
2022-10-21T03:13:11.017Z,7.07
2022-10-21T03:15:39.918Z,6.60
2022-10-21T03:18:08.783Z,6.57
2022-10-21T03:20:37.408Z,6.27
2022-10-21T03:23:07.619Z,7.10
2022-10-21T03:25:36.043Z,6.57
2022-10-21T03:28:04.683Z,6.27
2022-10-21T03:30:33.289Z,5.93
2022-10-21T03:33:01.801Z,6.50
2022-10-21T03:35:30.879Z,6.57
2022-10-21T03:37:59.691Z,6.03
2022-10-21T03:40:30.327Z,6.03
2022-10-21T03:43:00.064Z,6.30
2022-10-21T03:45:29.090Z,5.93
2022-10-21T03:47:57.579Z,6.47
2022-10-21T03:50:26.770Z,6.07
2022-10-21T03:52:56.034Z,5.37
2022-10-21T03:55:25.206Z,5.57
2022-10-21T03:57:55.457Z,6.10
2022-10-21T04:00:26.114Z,6.57
2022-10-21T04:02:56.925Z,6.50
2022-10-21T04:05:25.751Z,6.80
2022-10-21T04:07:54.177Z,6.53
2022-10-21T04:10:22.593Z,5.77
2022-10-21T04:12:50.989Z,6.50
2022-10-21T04:15:21.090Z,6.17
2022-10-21T04:17:54.433Z,6.50
2022-10-21T04:20:23.371Z,6.13
2022-10-21T04:22:52.160Z,6.10
2022-10-21T04:25:20.607Z,6.93
2022-10-21T04:27:49.587Z,6.90
2022-10-21T04:30:20.517Z,6.80
2022-10-21T04:32:50.744Z,6.73
2022-10-21T04:35:20.150Z,6.50
2022-10-21T04:37:49.085Z,7.37
2022-10-21T04:40:18.331Z,6.07
2022-10-21T04:42:49.337Z,6.80
2022-10-21T04:45:18.670Z,6.67
2022-10-21T04:47:48.489Z,5.30
2022-10-21T04:50:17.527Z,5.80
2022-10-21T04:52:47.515Z,6.47
2022-10-21T04:55:16.141Z,5.73
2022-10-21T04:57:44.550Z,6.60
2022-10-21T05:00:14.867Z,5.87
2022-10-21T05:02:43.661Z,6.13
2022-10-21T05:05:13.661Z,5.80
2022-10-21T05:07:42.474Z,5.73
2022-10-21T05:10:11.126Z,5.37
2022-10-21T05:12:39.906Z,5.37
2022-10-21T05:15:10.121Z,5.27
2022-10-21T05:17:39.295Z,5.03
2022-10-21T05:20:10.096Z,5.20
2022-10-21T05:22:40.403Z,5.20
2022-10-21T05:25:10.375Z,5.17
2022-10-21T05:27:39.565Z,5.63
2022-10-21T05:30:10.491Z,5.37
2022-10-21T05:32:40.065Z,5.20
2022-10-21T05:35:11.945Z,5.50
2022-10-21T05:37:41.998Z,5.73
2022-10-21T05:40:11.625Z,6.37
2022-10-21T05:42:40.840Z,5.97
2022-10-21T05:45:11.452Z,5.90
2022-10-21T05:47:41.789Z,6.33
2022-10-21T05:50:12.999Z,6.70
2022-10-21T05:52:43.133Z,5.97
2022-10-21T05:55:12.018Z,5.47
2022-10-21T05:57:40.739Z,5.87
2022-10-21T06:00:11.422Z,5.73
2022-10-21T06:02:40.618Z,5.97
2022-10-21T06:05:10.176Z,5.50
2022-10-21T06:07:39.488Z,5.37
2022-10-21T06:10:12.160Z,5.80
2022-10-21T06:12:41.117Z,5.47
2022-10-21T06:15:11.018Z,6.33
2022-10-21T06:17:39.947Z,6.43
2022-10-21T06:20:10.066Z,5.87
2022-10-21T06:22:39.063Z,6.30
2022-10-21T06:25:09.934Z,6.50
2022-10-21T06:27:39.452Z,6.33
2022-10-21T06:30:09.971Z,6.80
2022-10-21T06:32:38.915Z,5.83
2022-10-21T06:35:08.483Z,6.77
2022-10-21T06:37:37.792Z,6.37
2022-10-21T06:40:10.287Z,5.27
2022-10-21T06:42:39.721Z,6.07
2022-10-21T06:45:09.210Z,6.17
2022-10-21T06:47:38.015Z,5.83
2022-10-21T06:50:08.514Z,5.50
2022-10-21T06:52:37.065Z,5.70
2022-10-21T06:55:06.644Z,5.37
2022-10-21T06:57:36.835Z,5.13
2022-10-21T07:00:07.735Z,6.00
2022-10-21T07:02:36.723Z,5.40
2022-10-21T07:05:06.993Z,4.33
2022-10-21T07:07:36.312Z,4.73
2022-10-21T07:10:06.126Z,5.00
2022-10-21T07:12:36.798Z,4.33
2022-10-21T07:15:06.028Z,4.30
2022-10-21T07:17:34.462Z,4.70
2022-10-21T07:20:03.283Z,5.50
2022-10-21T07:22:32.137Z,4.63
2022-10-21T07:27:29.963Z,5.07
2022-10-21T07:30:00.623Z,5.20
2022-10-21T07:32:29.937Z,4.73
2022-10-21T07:34:58.955Z,4.80
2022-10-21T07:37:28.258Z,4.27
2022-10-21T07:39:56.944Z,4.87
2022-10-21T07:42:25.372Z,4.80
2022-10-21T07:44:59.286Z,3.93
2022-10-21T07:47:29.099Z,4.50
2022-10-21T07:49:57.826Z,5.73
2022-10-21T07:52:27.034Z,5.13
2022-10-21T07:54:55.478Z,4.40
2022-10-21T07:57:24.154Z,4.50
2022-10-21T07:59:52.651Z,4.87
2022-10-21T08:02:21.446Z,4.87
2022-10-21T08:04:52.159Z,4.10
2022-10-21T08:07:21.114Z,4.77
2022-10-21T08:09:50.287Z,4.30
2022-10-21T08:12:19.365Z,4.37
2022-10-21T08:14:48.040Z,5.10
2022-10-21T08:17:16.707Z,4.20
2022-10-21T08:19:47.376Z,4.60
2022-10-21T08:22:17.734Z,4.40
2022-10-21T08:24:46.408Z,4.80
2022-10-21T08:27:15.585Z,4.70
2022-10-21T08:29:44.160Z,4.67
2022-10-21T08:32:12.715Z,4.47
2022-10-21T08:34:41.731Z,4.60
2022-10-21T08:37:10.369Z,4.53
2022-10-21T08:39:40.651Z,4.30
2022-10-21T08:42:15.479Z,4.27
2022-10-21T08:44:54.085Z,3.77
2022-10-21T08:47:33.911Z,5.87
2022-10-21T08:50:10.381Z,4.37
2022-10-21T08:52:48.471Z,4.50
2022-10-21T08:55:24.038Z,4.13
2022-10-21T08:57:54.648Z,3.90
2022-10-21T09:00:25.982Z,4.90
2022-10-21T09:03:08.404Z,3.90
2022-10-21T09:06:10.289Z,4.00
2022-10-21T09:08:53.849Z,4.10
2022-10-21T09:11:43.532Z,4.00
2022-10-21T09:15:08.768Z,4.67
2022-10-21T09:18:09.620Z,3.70
2022-10-21T09:20:56.749Z,3.97
2022-10-21T09:23:53.292Z,4.20
2022-10-21T09:26:37.766Z,3.93
2022-10-21T09:29:30.300Z,4.00
2022-10-21T09:32:13.010Z,3.80
2022-10-21T09:34:51.519Z,4.50
2022-10-21T09:37:31.789Z,3.90
2022-10-21T09:40:15.919Z,4.03
2022-10-21T09:42:48.151Z,4.23
2022-10-21T09:45:27.509Z,4.10
2022-10-21T09:48:00.678Z,3.80
2022-10-21T09:53:14.157Z,4.10
2022-10-21T09:55:45.704Z,4.33
2022-10-21T09:58:27.259Z,4.07
2022-10-21T10:00:56.785Z,3.87
2022-10-21T10:03:35.810Z,4.13
2022-10-21T10:06:06.797Z,4.13
2022-10-21T10:08:40.289Z,4.30
2022-10-21T10:11:18.013Z,3.87
2022-10-21T10:13:50.434Z,4.23
2022-10-21T10:16:28.653Z,4.13
2022-10-21T10:19:16.877Z,4.00
2022-10-21T10:21:48.047Z,3.93
2022-10-21T10:24:20.553Z,3.60
2022-10-21T10:26:50.464Z,3.97
2022-10-21T10:29:27.062Z,4.70
2022-10-21T10:31:59.585Z,4.03
2022-10-21T10:34:34.884Z,4.43
2022-10-21T10:37:09.674Z,3.97
2022-10-21T10:39:41.163Z,3.43
2022-10-21T10:42:09.897Z,3.90
2022-10-21T10:44:43.292Z,4.17
2022-10-21T10:47:24.122Z,3.97
2022-10-21T10:49:52.578Z,3.80
2022-10-21T10:52:24.233Z,4.00
2022-10-21T10:55:23.320Z,3.17
2022-10-21T10:58:09.931Z,3.83
2022-10-21T11:00:50.920Z,4.37
2022-10-21T11:03:28.870Z,4.00
2022-10-21T11:06:13.197Z,4.07
2022-10-21T11:08:49.262Z,4.47
2022-10-21T11:11:26.611Z,4.30
2022-10-21T11:13:55.346Z,3.73
2022-10-21T11:17:00.441Z,4.20
2022-10-21T11:19:47.044Z,4.30
2022-10-21T11:22:29.623Z,3.43
2022-10-21T11:25:09.326Z,3.80
2022-10-21T11:28:11.805Z,4.00
2022-10-21T11:31:05.386Z,3.40
2022-10-21T11:33:48.575Z,3.50
2022-10-21T11:36:28.002Z,4.00
2022-10-21T11:39:26.690Z,3.50
2022-10-21T11:42:07.134Z,3.70
2022-10-21T11:45:01.118Z,4.00
2022-10-21T11:47:41.128Z,4.00
2022-10-21T11:50:22.498Z,3.57
2022-10-21T11:53:19.715Z,4.23
2022-10-21T11:56:04.153Z,3.80
2022-10-21T11:58:51.678Z,3.83
2022-10-21T12:01:34.503Z,3.33
2022-10-21T12:04:30.266Z,3.90
2022-10-21T12:07:42.646Z,3.63
2022-10-21T12:10:22.459Z,4.07
2022-10-21T12:12:55.735Z,3.90
2022-10-21T12:15:36.330Z,4.40
2022-10-21T12:18:07.491Z,4.20
2022-10-21T12:20:36.381Z,3.80
2022-10-21T12:23:08.669Z,4.03
2022-10-21T12:25:48.218Z,4.40
2022-10-21T12:28:30.502Z,4.27
2022-10-21T12:31:12.661Z,4.30
2022-10-21T12:33:45.845Z,4.03
2022-10-21T12:36:39.055Z,5.30
2022-10-21T12:39:17.264Z,5.27
2022-10-21T12:41:48.151Z,4.93
2022-10-21T12:44:25.436Z,4.93
2022-10-21T12:46:57.543Z,4.87
2022-10-21T12:49:32.634Z,5.40
2022-10-21T12:52:13.024Z,5.07
2022-10-21T12:54:57.241Z,5.33
2022-10-21T12:57:30.819Z,5.50
2022-10-21T13:00:32.772Z,5.47
2022-10-21T13:03:04.273Z,4.67
2022-10-21T13:06:04.766Z,4.57
2022-10-21T13:08:53.220Z,4.53
2022-10-21T13:11:39.399Z,4.40
2022-10-21T13:14:35.330Z,4.40
2022-10-21T13:17:31.954Z,4.53
2022-10-21T13:20:46.363Z,4.53
2022-10-21T13:23:44.819Z,4.33
2022-10-21T13:26:25.025Z,4.33
2022-10-21T13:29:06.225Z,3.70
2022-10-21T13:31:35.103Z,4.67
2022-10-21T13:34:04.495Z,4.60
2022-10-21T13:36:42.670Z,4.40
2022-10-21T13:39:28.639Z,4.93
2022-10-21T13:42:04.757Z,5.43
2022-10-21T13:44:39.395Z,5.37
2022-10-21T13:47:33.838Z,4.93
2022-10-21T13:50:16.672Z,5.13
2022-10-21T13:52:45.618Z,5.33
2022-10-21T13:55:24.138Z,5.00
2022-10-21T13:57:55.560Z,5.20
2022-10-21T14:00:30.157Z,5.47
2022-10-21T14:03:04.195Z,5.67
2022-10-21T14:05:39.590Z,6.13
2022-10-21T14:08:26.817Z,4.77
2022-10-21T14:11:01.044Z,5.17
2022-10-21T14:13:37.554Z,6.00
2022-10-21T14:16:09.847Z,5.87
2022-10-21T14:18:46.556Z,5.67
2022-10-21T14:21:21.894Z,5.23
2022-10-21T14:23:52.620Z,5.60
2022-10-21T14:26:22.355Z,4.63
2022-10-21T14:28:51.820Z,5.50
2022-10-21T14:31:21.869Z,5.20
2022-10-21T14:33:50.491Z,4.87
2022-10-21T14:36:23.352Z,5.53
2022-10-21T14:39:00.882Z,5.43
2022-10-21T14:41:35.217Z,5.73
2022-10-21T14:44:14.212Z,5.20
2022-10-21T14:46:48.889Z,4.63
2022-10-21T14:49:25.157Z,4.50
2022-10-21T14:52:01.703Z,5.33
2022-10-21T14:54:41.534Z,5.07
2022-10-21T14:57:39.042Z,5.07
2022-10-21T15:00:22.243Z,5.27
2022-10-21T15:02:53.935Z,4.90
2022-10-21T15:05:36.644Z,5.50
2022-10-21T15:08:32.006Z,5.37
2022-10-21T15:11:23.235Z,5.77
2022-10-21T15:14:23.907Z,5.90
2022-10-21T15:16:55.514Z,5.27
2022-10-21T15:19:29.375Z,5.50
2022-10-21T15:22:02.469Z,5.97
2022-10-21T15:24:42.901Z,5.87
2022-10-21T15:27:19.538Z,5.97
2022-10-21T15:29:49.746Z,6.20
2022-10-21T15:32:24.349Z,5.87
2022-10-21T15:34:56.787Z,6.80
2022-10-21T15:37:25.637Z,6.57
2022-10-21T15:39:54.049Z,6.87
2022-10-21T15:42:22.487Z,7.63
2022-10-21T15:44:51.855Z,7.60
2022-10-21T15:47:20.691Z,7.30
2022-10-21T15:49:49.530Z,7.30
2022-10-21T15:52:19.326Z,7.30
2022-10-21T15:54:47.788Z,7.13
2022-10-21T15:57:19.741Z,7.13
2022-10-21T15:59:49.413Z,7.77
2022-10-21T16:02:18.564Z,7.97
2022-10-21T16:04:47.251Z,7.97
2022-10-21T16:07:23.076Z,7.93
2022-10-21T16:09:52.059Z,7.80
2022-10-21T16:12:23.211Z,7.00
2022-10-21T16:14:51.812Z,7.17
2022-10-21T16:17:23.652Z,7.43
2022-10-21T16:19:52.042Z,7.30
2022-10-21T16:22:23.728Z,7.27
2022-10-21T16:24:52.137Z,6.33
2022-10-21T16:27:31.022Z,6.37
2022-10-21T16:30:17.334Z,6.53
2022-10-21T16:32:46.470Z,8.30
2022-10-21T16:35:16.823Z,6.43
2022-10-21T16:37:48.189Z,6.97
2022-10-21T16:40:22.247Z,7.93
2022-10-21T16:42:52.554Z,6.97
2022-10-21T16:45:23.661Z,6.50
2022-10-21T16:47:56.816Z,7.17
2022-10-21T16:50:33.478Z,6.73
2022-10-21T16:53:04.156Z,6.67
2022-10-21T16:55:32.820Z,9.07
2022-10-21T16:58:01.255Z,6.23
2022-10-21T17:00:30.143Z,5.83
2022-10-21T17:02:59.259Z,6.20
2022-10-21T17:05:28.245Z,7.37
2022-10-21T17:07:58.463Z,6.27
2022-10-21T17:10:28.587Z,6.73
2022-10-21T17:12:59.175Z,6.17
2022-10-21T17:15:29.408Z,5.57
2022-10-21T17:17:59.187Z,6.20
2022-10-21T17:20:30.465Z,6.00
2022-10-21T17:23:00.165Z,6.43
2022-10-21T17:25:31.586Z,6.40
2022-10-21T17:28:00.394Z,6.40
2022-10-21T17:30:29.511Z,6.67
2022-10-21T17:32:58.379Z,5.33
2022-10-21T17:35:27.359Z,5.63
2022-10-21T17:37:55.817Z,5.60
2022-10-21T17:40:27.430Z,5.17
2022-10-21T17:42:58.331Z,4.80
2022-10-21T17:45:27.107Z,4.67
2022-10-21T17:47:55.608Z,5.23
2022-10-21T17:50:25.345Z,5.43
2022-10-21T17:52:55.886Z,3.70
2022-10-21T17:55:25.086Z,4.20
2022-10-21T17:57:53.517Z,3.70
2022-10-21T18:00:23.436Z,4.87
2022-10-21T18:02:51.859Z,3.40
2022-10-21T18:05:20.996Z,3.90
2022-10-21T18:07:49.545Z,6.63
2022-10-21T18:10:18.142Z,6.73
2022-10-21T18:12:46.531Z,4.23
2022-10-21T18:15:16.001Z,4.10
2022-10-21T18:17:45.759Z,5.43
2022-10-21T18:20:16.563Z,4.20
2022-10-21T18:22:44.956Z,4.13
2022-10-21T18:25:13.662Z,3.90
2022-10-21T18:27:45.501Z,3.57
2022-10-21T18:30:14.232Z,8.77
2022-10-21T18:32:42.954Z,8.10
2022-10-21T18:35:12.923Z,6.00
2022-10-21T18:37:41.710Z,8.07
2022-10-21T18:40:12.041Z,3.53
2022-10-21T18:42:40.873Z,2.97
2022-10-21T18:45:10.950Z,2.60
2022-10-21T18:47:40.730Z,3.00
2022-10-21T18:50:13.086Z,2.77
2022-10-21T18:52:42.155Z,2.70
2022-10-21T18:55:10.996Z,3.23
2022-10-21T18:57:40.176Z,2.93
2022-10-21T19:00:10.648Z,2.53
2022-10-21T19:02:39.813Z,2.93
2022-10-21T19:05:09.350Z,2.83
2022-10-21T19:07:39.636Z,3.43
2022-10-21T19:10:08.978Z,3.17
2022-10-21T19:12:37.377Z,3.57
2022-10-21T19:15:08.230Z,3.90
2022-10-21T19:17:36.977Z,3.97
2022-10-21T19:20:07.118Z,3.63
2022-10-21T19:22:36.118Z,2.70
2022-10-21T19:25:07.513Z,3.57
2022-10-21T19:27:36.483Z,3.23
2022-10-21T19:30:05.898Z,3.60
2022-10-21T19:32:38.100Z,3.60
2022-10-21T19:35:07.367Z,3.37
2022-10-21T19:37:35.862Z,3.40
2022-10-21T19:40:07.055Z,3.70
2022-10-21T19:42:36.803Z,4.40
2022-10-21T19:45:06.750Z,3.43
2022-10-21T19:47:35.437Z,3.93
2022-10-21T19:50:03.918Z,3.40
2022-10-21T19:52:32.799Z,3.30
2022-10-21T19:55:01.254Z,4.30
2022-10-21T19:57:31.451Z,3.87
2022-10-21T20:00:00.369Z,3.90
2022-10-21T20:02:29.307Z,4.53
2022-10-21T20:04:57.745Z,5.30
2022-10-21T20:07:26.171Z,5.17
2022-10-21T20:09:54.613Z,6.30
2022-10-21T20:12:23.209Z,6.00
2022-10-21T20:14:52.961Z,8.60
2022-10-21T20:17:21.423Z,6.80
2022-10-21T20:19:51.082Z,7.50
2022-10-21T20:22:19.677Z,7.50
2022-10-21T20:24:48.593Z,9.73
2022-10-21T20:27:16.989Z,6.17
2022-10-21T20:29:45.426Z,8.37
2022-10-21T20:32:15.534Z,6.33
2022-10-21T20:34:44.498Z,7.00
2022-10-21T20:37:12.898Z,8.17
2022-10-21T20:39:42.000Z,8.43
2022-10-21T20:42:10.746Z,7.30
2022-10-21T20:44:39.889Z,5.80
2022-10-21T20:47:08.774Z,6.83
2022-10-21T20:49:38.527Z,6.67
2022-10-21T20:52:06.944Z,7.10
2022-10-21T20:54:35.663Z,5.70
2022-10-21T20:57:04.574Z,8.37
2022-10-21T20:59:33.334Z,7.10
2022-10-21T21:02:02.090Z,6.87
2022-10-21T21:04:30.554Z,6.77
2022-10-21T21:07:00.701Z,7.30
2022-10-21T21:09:50.060Z,7.17
2022-10-21T21:12:18.909Z,7.20
2022-10-21T21:14:47.323Z,5.93
2022-10-21T21:17:15.930Z,5.77
2022-10-21T21:19:44.610Z,5.40
2022-10-21T21:22:14.569Z,5.23
2022-10-21T21:24:43.793Z,4.60
2022-10-21T21:27:12.201Z,5.30
2022-10-21T21:29:40.597Z,4.90
2022-10-21T21:32:09.537Z,4.57
2022-10-21T21:34:38.396Z,4.23
2022-10-21T21:37:06.805Z,4.03
2022-10-21T21:39:36.662Z,3.77
2022-10-21T21:42:05.739Z,3.87
2022-10-21T21:44:34.384Z,4.70
2022-10-21T21:47:02.831Z,4.40
2022-10-21T21:49:31.297Z,5.07
2022-10-21T21:52:00.076Z,4.87
2022-10-21T21:54:29.146Z,6.03
2022-10-21T21:57:26.375Z,5.00
2022-10-21T21:59:47.879Z,5.60
2022-10-21T22:02:16.343Z,5.33
2022-10-21T22:04:45.724Z,4.83
2022-10-21T22:07:14.587Z,4.87
2022-10-21T22:09:42.985Z,5.53
2022-10-21T22:12:14.669Z,4.30
2022-10-21T22:14:44.316Z,4.13
2022-10-21T22:17:12.993Z,3.63
2022-10-21T22:19:41.419Z,4.00
2022-10-21T22:22:09.967Z,3.70
2022-10-21T22:24:39.713Z,3.90
2022-10-21T22:27:08.492Z,3.73
2022-10-21T22:29:38.807Z,4.90
2022-10-21T22:32:07.297Z,3.77
2022-10-21T22:34:35.957Z,3.80
2022-10-21T22:37:04.380Z,4.80
2022-10-21T22:39:32.832Z,4.90
2022-10-21T22:42:01.585Z,6.47
2022-10-21T22:44:30.539Z,9.73
2022-10-21T22:47:00.850Z,6.13
2022-10-21T22:49:29.619Z,4.03
2022-10-21T22:51:58.540Z,5.73
2022-10-21T22:54:47.945Z,7.40
2022-10-21T22:57:15.417Z,5.97
2022-10-21T22:59:44.229Z,5.50
2022-10-21T23:02:14.580Z,5.00
2022-10-21T23:04:43.012Z,5.57
2022-10-21T23:07:11.494Z,5.13
2022-10-21T23:09:39.902Z,5.17
2022-10-21T23:12:08.895Z,5.37
2022-10-21T23:14:37.319Z,5.00
2022-10-21T23:17:05.757Z,5.30
2022-10-21T23:19:35.784Z,4.77
2022-10-21T23:22:04.369Z,5.40
2022-10-21T23:24:33.115Z,4.83
2022-10-21T23:27:01.815Z,4.67
2022-10-21T23:29:30.755Z,4.90
2022-10-21T23:31:59.754Z,5.03
2022-10-21T23:34:28.486Z,4.03
2022-10-21T23:36:58.608Z,4.37
2022-10-21T23:39:27.017Z,4.50
2022-10-21T23:41:55.655Z,4.40
2022-10-21T23:44:24.054Z,4.47
2022-10-21T23:46:52.491Z,3.80
2022-10-21T23:49:20.913Z,4.47
2022-10-21T23:51:49.854Z,5.07
2022-10-21T23:54:20.045Z,4.87
2022-10-21T23:56:48.975Z,4.93
2022-10-21T23:59:17.696Z,5.53
